sensor_id;sensor_type;location;lat;lon;timestamp;pressure;altitude;pressure_sealevel;temperature;humidity
5966;BME280;3009;43.224;27.976;2023-03-16T00:00:36;99438.94;;;6.78;100.00
5966;BME280;3009;43.224;27.976;2023-03-16T00:03:04;99444.88;;;6.75;100.00
5966;BME280;3009;43.224;27.976;2023-03-16T00:05:34;99443.91;;;6.71;100.00
5966;BME280;3009;43.224;27.976;2023-03-16T00:08:03;99443.78;;;6.76;100.00
5966;BME280;3009;43.224;27.976;2023-03-16T00:10:33;99444.06;;;6.74;100.00
5966;BME280;3009;43.224;27.976;2023-03-16T00:13:02;99438.94;;;6.78;100.00
5966;BME280;3009;43.224;27.976;2023-03-16T00:15:30;99441.47;;;6.83;100.00
5966;BME280;3009;43.224;27.976;2023-03-16T00:17:59;99433.38;;;6.88;100.00
5966;BME280;3009;43.224;27.976;2023-03-16T00:20:27;99445.09;;;6.87;100.00
5966;BME280;3009;43.224;27.976;2023-03-16T00:22:55;99437.88;;;6.88;100.00
5966;BME280;3009;43.224;27.976;2023-03-16T00:25:24;99439.78;;;6.87;100.00
5966;BME280;3009;43.224;27.976;2023-03-16T00:27:54;99451.88;;;6.94;100.00
5966;BME280;3009;43.224;27.976;2023-03-16T00:30:22;99437.78;;;7.02;100.00
5966;BME280;3009;43.224;27.976;2023-03-16T00:32:51;99447.06;;;7.04;100.00
5966;BME280;3009;43.224;27.976;2023-03-16T00:35:20;99438.03;;;7.14;100.00
5966;BME280;3009;43.224;27.976;2023-03-16T00:37:49;99445.38;;;7.08;100.00
5966;BME280;3009;43.224;27.976;2023-03-16T00:40:17;99442.38;;;7.10;100.00
5966;BME280;3009;43.224;27.976;2023-03-16T00:42:46;99442.44;;;7.19;100.00
5966;BME280;3009;43.224;27.976;2023-03-16T00:45:16;99446.19;;;7.18;100.00
5966;BME280;3009;43.224;27.976;2023-03-16T00:47:44;99440.50;;;7.10;100.00
5966;BME280;3009;43.224;27.976;2023-03-16T00:50:13;99431.94;;;7.22;100.00
5966;BME280;3009;43.224;27.976;2023-03-16T00:52:41;99432.06;;;7.17;100.00
5966;BME280;3009;43.224;27.976;2023-03-16T00:55:10;99431.41;;;7.12;100.00
5966;BME280;3009;43.224;27.976;2023-03-16T00:57:39;99442.88;;;7.12;100.00
5966;BME280;3009;43.224;27.976;2023-03-16T01:00:08;99431.28;;;7.17;100.00
5966;BME280;3009;43.224;27.976;2023-03-16T01:02:40;99432.38;;;7.16;100.00
5966;BME280;3009;43.224;27.976;2023-03-16T01:05:11;99428.44;;;7.13;100.00
5966;BME280;3009;43.224;27.976;2023-03-16T01:07:40;99431.22;;;7.08;100.00
5966;BME280;3009;43.224;27.976;2023-03-16T01:10:11;99430.19;;;7.18;100.00
5966;BME280;3009;43.224;27.976;2023-03-16T01:12:42;99438.81;;;7.15;100.00
5966;BME280;3009;43.224;27.976;2023-03-16T01:15:11;99436.91;;;7.15;100.00
5966;BME280;3009;43.224;27.976;2023-03-16T01:17:41;99434.09;;;7.12;100.00
5966;BME280;3009;43.224;27.976;2023-03-16T01:20:10;99433.94;;;7.17;100.00
5966;BME280;3009;43.224;27.976;2023-03-16T01:22:40;99438.09;;;7.00;100.00
5966;BME280;3009;43.224;27.976;2023-03-16T01:25:10;99436.72;;;7.03;100.00
5966;BME280;3009;43.224;27.976;2023-03-16T01:27:39;99440.81;;;7.09;100.00
5966;BME280;3009;43.224;27.976;2023-03-16T01:30:09;99433.44;;;7.06;100.00
5966;BME280;3009;43.224;27.976;2023-03-16T01:32:39;99437.72;;;7.16;100.00
5966;BME280;3009;43.224;27.976;2023-03-16T01:35:09;99445.41;;;7.17;100.00
5966;BME280;3009;43.224;27.976;2023-03-16T01:37:37;99446.50;;;7.16;100.00
5966;BME280;3009;43.224;27.976;2023-03-16T01:40:07;99451.34;;;7.14;100.00
5966;BME280;3009;43.224;27.976;2023-03-16T01:42:45;99449.78;;;7.13;100.00
5966;BME280;3009;43.224;27.976;2023-03-16T01:48:20;99456.69;;;7.14;100.00
5966;BME280;3009;43.224;27.976;2023-03-16T01:50:53;99454.44;;;7.07;100.00
5966;BME280;3009;43.224;27.976;2023-03-16T01:53:23;99453.06;;;7.10;100.00
5966;BME280;3009;43.224;27.976;2023-03-16T01:55:53;99456.06;;;7.17;100.00
5966;BME280;3009;43.224;27.976;2023-03-16T01:58:22;99456.50;;;7.10;100.00
5966;BME280;3009;43.224;27.976;2023-03-16T02:00:50;99459.47;;;7.09;100.00
5966;BME280;3009;43.224;27.976;2023-03-16T02:03:20;99465.09;;;7.07;100.00
5966;BME280;3009;43.224;27.976;2023-03-16T02:05:53;99469.66;;;7.07;100.00
5966;BME280;3009;43.224;27.976;2023-03-16T02:08:26;99469.16;;;7.05;100.00
5966;BME280;3009;43.224;27.976;2023-03-16T02:10:55;99473.41;;;7.06;100.00
5966;BME280;3009;43.224;27.976;2023-03-16T02:13:25;99467.59;;;7.04;100.00
5966;BME280;3009;43.224;27.976;2023-03-16T02:15:55;99477.44;;;6.95;100.00
5966;BME280;3009;43.224;27.976;2023-03-16T02:18:24;99474.59;;;6.91;100.00
5966;BME280;3009;43.224;27.976;2023-03-16T02:21:03;99472.13;;;6.95;100.00
5966;BME280;3009;43.224;27.976;2023-03-16T02:23:34;99486.34;;;6.90;100.00
5966;BME280;3009;43.224;27.976;2023-03-16T02:26:08;99488.53;;;6.88;100.00
5966;BME280;3009;43.224;27.976;2023-03-16T02:28:44;99490.41;;;6.87;100.00
5966;BME280;3009;43.224;27.976;2023-03-16T02:31:19;99497.13;;;6.85;100.00
5966;BME280;3009;43.224;27.976;2023-03-16T02:33:49;99503.22;;;6.85;100.00
5966;BME280;3009;43.224;27.976;2023-03-16T02:36:18;99502.94;;;6.87;100.00
5966;BME280;3009;43.224;27.976;2023-03-16T02:38:47;99495.72;;;6.87;100.00
5966;BME280;3009;43.224;27.976;2023-03-16T02:41:16;99499.38;;;6.91;100.00
5966;BME280;3009;43.224;27.976;2023-03-16T02:43:48;99501.22;;;6.91;100.00
5966;BME280;3009;43.224;27.976;2023-03-16T02:46:22;99496.09;;;6.95;100.00
5966;BME280;3009;43.224;27.976;2023-03-16T02:48:58;99496.88;;;6.95;100.00
5966;BME280;3009;43.224;27.976;2023-03-16T02:51:29;99500.63;;;6.94;100.00
5966;BME280;3009;43.224;27.976;2023-03-16T02:53:58;99503.19;;;7.08;100.00
5966;BME280;3009;43.224;27.976;2023-03-16T02:56:26;99506.06;;;7.12;100.00
5966;BME280;3009;43.224;27.976;2023-03-16T02:58:55;99499.66;;;7.13;100.00
5966;BME280;3009;43.224;27.976;2023-03-16T03:01:25;99501.50;;;7.12;100.00
5966;BME280;3009;43.224;27.976;2023-03-16T03:03:53;99501.66;;;7.07;100.00
5966;BME280;3009;43.224;27.976;2023-03-16T03:06:21;99495.69;;;7.10;100.00
5966;BME280;3009;43.224;27.976;2023-03-16T03:08:52;99492.06;;;7.06;100.00
5966;BME280;3009;43.224;27.976;2023-03-16T03:11:20;99502.13;;;7.09;100.00
5966;BME280;3009;43.224;27.976;2023-03-16T03:13:49;99511.81;;;7.05;100.00
5966;BME280;3009;43.224;27.976;2023-03-16T03:16:17;99514.38;;;7.10;100.00
5966;BME280;3009;43.224;27.976;2023-03-16T03:18:47;99515.44;;;7.09;100.00
5966;BME280;3009;43.224;27.976;2023-03-16T03:21:16;99519.44;;;7.20;100.00
5966;BME280;3009;43.224;27.976;2023-03-16T03:23:44;99524.09;;;7.15;100.00
5966;BME280;3009;43.224;27.976;2023-03-16T03:26:13;99525.56;;;7.21;100.00
5966;BME280;3009;43.224;27.976;2023-03-16T03:28:42;99536.38;;;7.24;100.00
5966;BME280;3009;43.224;27.976;2023-03-16T03:31:13;99527.31;;;7.25;100.00
5966;BME280;3009;43.224;27.976;2023-03-16T03:33:41;99531.03;;;7.24;100.00
5966;BME280;3009;43.224;27.976;2023-03-16T03:36:11;99529.00;;;7.21;100.00
5966;BME280;3009;43.224;27.976;2023-03-16T03:38:40;99532.88;;;7.15;100.00
5966;BME280;3009;43.224;27.976;2023-03-16T03:41:09;99534.56;;;7.34;100.00
5966;BME280;3009;43.224;27.976;2023-03-16T03:43:37;99538.13;;;7.29;100.00
5966;BME280;3009;43.224;27.976;2023-03-16T03:46:06;99534.81;;;7.23;100.00
5966;BME280;3009;43.224;27.976;2023-03-16T03:48:35;99542.63;;;7.20;100.00
5966;BME280;3009;43.224;27.976;2023-03-16T03:51:04;99542.31;;;7.21;100.00
5966;BME280;3009;43.224;27.976;2023-03-16T03:53:34;99550.47;;;7.16;100.00
5966;BME280;3009;43.224;27.976;2023-03-16T03:56:03;99557.38;;;7.17;100.00
5966;BME280;3009;43.224;27.976;2023-03-16T03:58:31;99558.31;;;7.21;100.00
5966;BME280;3009;43.224;27.976;2023-03-16T04:01:00;99559.91;;;7.22;100.00
5966;BME280;3009;43.224;27.976;2023-03-16T04:03:28;99564.25;;;7.18;100.00
5966;BME280;3009;43.224;27.976;2023-03-16T04:05:57;99568.22;;;7.21;100.00
5966;BME280;3009;43.224;27.976;2023-03-16T04:08:26;99569.19;;;7.25;100.00
5966;BME280;3009;43.224;27.976;2023-03-16T04:10:56;99565.47;;;7.35;100.00
5966;BME280;3009;43.224;27.976;2023-03-16T04:13:25;99574.69;;;7.28;100.00
5966;BME280;3009;43.224;27.976;2023-03-16T04:15:55;99577.97;;;7.25;100.00
5966;BME280;3009;43.224;27.976;2023-03-16T04:18:25;99576.69;;;7.23;100.00
5966;BME280;3009;43.224;27.976;2023-03-16T04:20:53;99579.66;;;7.21;100.00
5966;BME280;3009;43.224;27.976;2023-03-16T04:23:22;99583.00;;;7.27;100.00
5966;BME280;3009;43.224;27.976;2023-03-16T04:25:52;99587.34;;;7.23;100.00
5966;BME280;3009;43.224;27.976;2023-03-16T04:28:22;99586.56;;;7.22;100.00
5966;BME280;3009;43.224;27.976;2023-03-16T04:30:52;99593.47;;;7.23;100.00
5966;BME280;3009;43.224;27.976;2023-03-16T04:33:21;99600.25;;;7.30;100.00
5966;BME280;3009;43.224;27.976;2023-03-16T04:35:49;99611.84;;;7.25;100.00
5966;BME280;3009;43.224;27.976;2023-03-16T04:38:18;99609.28;;;7.20;100.00
5966;BME280;3009;43.224;27.976;2023-03-16T04:40:47;99608.69;;;7.23;100.00
5966;BME280;3009;43.224;27.976;2023-03-16T04:43:15;99612.63;;;7.25;100.00
5966;BME280;3009;43.224;27.976;2023-03-16T04:45:45;99609.25;;;7.34;100.00
5966;BME280;3009;43.224;27.976;2023-03-16T04:48:14;99609.94;;;7.25;100.00
5966;BME280;3009;43.224;27.976;2023-03-16T04:50:42;99611.03;;;7.24;100.00
5966;BME280;3009;43.224;27.976;2023-03-16T04:53:11;99613.47;;;7.35;100.00
5966;BME280;3009;43.224;27.976;2023-03-16T04:55:40;99614.56;;;7.34;100.00
5966;BME280;3009;43.224;27.976;2023-03-16T04:58:10;99622.06;;;7.32;100.00
5966;BME280;3009;43.224;27.976;2023-03-16T05:00:41;99618.72;;;7.26;100.00
5966;BME280;3009;43.224;27.976;2023-03-16T05:03:11;99622.69;;;7.28;100.00
5966;BME280;3009;43.224;27.976;2023-03-16T05:05:40;99620.31;;;7.27;100.00
5966;BME280;3009;43.224;27.976;2023-03-16T05:08:09;99628.31;;;7.27;100.00
5966;BME280;3009;43.224;27.976;2023-03-16T05:10:38;99621.91;;;7.28;100.00
5966;BME280;3009;43.224;27.976;2023-03-16T05:13:07;99625.03;;;7.30;100.00
5966;BME280;3009;43.224;27.976;2023-03-16T05:15:35;99628.84;;;7.38;100.00
5966;BME280;3009;43.224;27.976;2023-03-16T05:18:04;99630.13;;;7.40;100.00
5966;BME280;3009;43.224;27.976;2023-03-16T05:20:34;99632.31;;;7.38;100.00
5966;BME280;3009;43.224;27.976;2023-03-16T05:23:02;99626.00;;;7.34;100.00
5966;BME280;3009;43.224;27.976;2023-03-16T05:25:34;99636.47;;;7.31;100.00
5966;BME280;3009;43.224;27.976;2023-03-16T05:28:03;99641.25;;;7.34;100.00
5966;BME280;3009;43.224;27.976;2023-03-16T05:30:32;99646.06;;;7.32;100.00
5966;BME280;3009;43.224;27.976;2023-03-16T05:33:02;99655.53;;;7.38;100.00
5966;BME280;3009;43.224;27.976;2023-03-16T05:35:31;99646.13;;;7.40;100.00
5966;BME280;3009;43.224;27.976;2023-03-16T05:38:01;99648.78;;;7.40;100.00
5966;BME280;3009;43.224;27.976;2023-03-16T05:40:30;99659.63;;;7.44;100.00
5966;BME280;3009;43.224;27.976;2023-03-16T05:42:59;99652.38;;;7.58;100.00
5966;BME280;3009;43.224;27.976;2023-03-16T05:45:27;99650.91;;;7.52;100.00
5966;BME280;3009;43.224;27.976;2023-03-16T05:47:56;99647.03;;;7.58;100.00
5966;BME280;3009;43.224;27.976;2023-03-16T05:50:24;99659.16;;;7.65;100.00
5966;BME280;3009;43.224;27.976;2023-03-16T05:52:54;99655.13;;;7.53;100.00
5966;BME280;3009;43.224;27.976;2023-03-16T05:55:24;99659.59;;;7.58;100.00
5966;BME280;3009;43.224;27.976;2023-03-16T05:57:52;99659.16;;;7.65;100.00
5966;BME280;3009;43.224;27.976;2023-03-16T06:00:21;99664.47;;;7.65;100.00
5966;BME280;3009;43.224;27.976;2023-03-16T06:02:51;99664.31;;;7.61;100.00
5966;BME280;3009;43.224;27.976;2023-03-16T06:05:20;99670.44;;;7.61;100.00
5966;BME280;3009;43.224;27.976;2023-03-16T06:07:50;99667.19;;;7.73;100.00
5966;BME280;3009;43.224;27.976;2023-03-16T06:10:19;99675.31;;;7.68;100.00
5966;BME280;3009;43.224;27.976;2023-03-16T06:12:49;99672.84;;;7.72;100.00
5966;BME280;3009;43.224;27.976;2023-03-16T06:15:18;99679.31;;;7.79;100.00
5966;BME280;3009;43.224;27.976;2023-03-16T06:17:51;99684.16;;;7.77;100.00
5966;BME280;3009;43.224;27.976;2023-03-16T06:20:19;99682.53;;;7.68;100.00
5966;BME280;3009;43.224;27.976;2023-03-16T06:22:48;99682.53;;;7.68;100.00
5966;BME280;3009;43.224;27.976;2023-03-16T06:25:18;99683.75;;;7.61;100.00
5966;BME280;3009;43.224;27.976;2023-03-16T06:27:46;99690.72;;;7.71;100.00
5966;BME280;3009;43.224;27.976;2023-03-16T06:30:18;99698.03;;;7.57;100.00
5966;BME280;3009;43.224;27.976;2023-03-16T06:32:47;99698.78;;;7.57;100.00
5966;BME280;3009;43.224;27.976;2023-03-16T06:35:16;99709.91;;;7.51;100.00
5966;BME280;3009;43.224;27.976;2023-03-16T06:37:45;99716.38;;;7.58;100.00
5966;BME280;3009;43.224;27.976;2023-03-16T06:40:13;99719.22;;;7.62;100.00
5966;BME280;3009;43.224;27.976;2023-03-16T06:42:42;99718.44;;;7.61;100.00
5966;BME280;3009;43.224;27.976;2023-03-16T06:45:13;99721.59;;;7.41;100.00
5966;BME280;3009;43.224;27.976;2023-03-16T06:47:44;99719.22;;;7.39;100.00
5966;BME280;3009;43.224;27.976;2023-03-16T06:50:13;99730.09;;;7.43;100.00
5966;BME280;3009;43.224;27.976;2023-03-16T06:52:41;99732.88;;;7.38;100.00
5966;BME280;3009;43.224;27.976;2023-03-16T06:55:10;99746.03;;;7.34;100.00
5966;BME280;3009;43.224;27.976;2023-03-16T06:57:40;99737.34;;;7.28;100.00
5966;BME280;3009;43.224;27.976;2023-03-16T07:00:12;99746.94;;;7.30;100.00
5966;BME280;3009;43.224;27.976;2023-03-16T07:02:42;99748.91;;;7.24;100.00
5966;BME280;3009;43.224;27.976;2023-03-16T07:05:12;99765.34;;;7.17;100.00
5966;BME280;3009;43.224;27.976;2023-03-16T07:07:41;99762.75;;;7.12;100.00
5966;BME280;3009;43.224;27.976;2023-03-16T07:10:12;99765.41;;;7.12;100.00
5966;BME280;3009;43.224;27.976;2023-03-16T07:12:41;99755.66;;;7.07;100.00
5966;BME280;3009;43.224;27.976;2023-03-16T07:15:10;99771.75;;;7.16;100.00
5966;BME280;3009;43.224;27.976;2023-03-16T07:17:39;99774.63;;;7.06;100.00
5966;BME280;3009;43.224;27.976;2023-03-16T07:20:11;99781.13;;;7.14;100.00
5966;BME280;3009;43.224;27.976;2023-03-16T07:22:40;99784.09;;;6.98;100.00
5966;BME280;3009;43.224;27.976;2023-03-16T07:25:09;99782.22;;;6.99;100.00
5966;BME280;3009;43.224;27.976;2023-03-16T07:27:38;99798.22;;;6.85;100.00
5966;BME280;3009;43.224;27.976;2023-03-16T07:30:10;99787.09;;;6.83;100.00
5966;BME280;3009;43.224;27.976;2023-03-16T07:32:40;99803.66;;;6.94;100.00
5966;BME280;3009;43.224;27.976;2023-03-16T07:35:09;99806.13;;;6.90;100.00
5966;BME280;3009;43.224;27.976;2023-03-16T07:37:40;99795.97;;;6.92;100.00
5966;BME280;3009;43.224;27.976;2023-03-16T07:40:10;99809.19;;;6.69;100.00
5966;BME280;3009;43.224;27.976;2023-03-16T07:42:39;99809.97;;;6.70;100.00
5966;BME280;3009;43.224;27.976;2023-03-16T07:45:08;99809.88;;;6.75;100.00
5966;BME280;3009;43.224;27.976;2023-03-16T07:47:38;99819.94;;;6.64;100.00
5966;BME280;3009;43.224;27.976;2023-03-16T07:50:08;99823.19;;;6.61;100.00
5966;BME280;3009;43.224;27.976;2023-03-16T07:52:39;99814.13;;;6.62;100.00
5966;BME280;3009;43.224;27.976;2023-03-16T07:55:09;99836.19;;;6.49;100.00
5966;BME280;3009;43.224;27.976;2023-03-16T07:57:37;99829.59;;;6.60;100.00
5966;BME280;3009;43.224;27.976;2023-03-16T08:00:09;99834.72;;;6.56;100.00
5966;BME280;3009;43.224;27.976;2023-03-16T08:02:40;99840.03;;;6.56;100.00
5966;BME280;3009;43.224;27.976;2023-03-16T08:05:09;99838.97;;;6.57;100.00
5966;BME280;3009;43.224;27.976;2023-03-16T08:07:40;99839.16;;;6.47;100.00
5966;BME280;3009;43.224;27.976;2023-03-16T08:10:10;99837.09;;;6.58;100.00
5966;BME280;3009;43.224;27.976;2023-03-16T08:12:38;99853.16;;;6.39;100.00
5966;BME280;3009;43.224;27.976;2023-03-16T08:15:08;99851.88;;;6.50;100.00
5966;BME280;3009;43.224;27.976;2023-03-16T08:17:38;99853.63;;;6.41;100.00
5966;BME280;3009;43.224;27.976;2023-03-16T08:20:09;99858.59;;;6.48;100.00
5966;BME280;3009;43.224;27.976;2023-03-16T08:22:41;99852.81;;;6.27;100.00
5966;BME280;3009;43.224;27.976;2023-03-16T08:25:13;99860.72;;;6.32;100.00
5966;BME280;3009;43.224;27.976;2023-03-16T08:27:42;99857.47;;;6.35;100.00
5966;BME280;3009;43.224;27.976;2023-03-16T08:30:12;99864.16;;;6.32;100.00
5966;BME280;3009;43.224;27.976;2023-03-16T08:32:40;99865.66;;;6.38;100.00
5966;BME280;3009;43.224;27.976;2023-03-16T08:35:11;99871.47;;;6.27;100.00
5966;BME280;3009;43.224;27.976;2023-03-16T08:37:42;99866.63;;;6.29;100.00
5966;BME280;3009;43.224;27.976;2023-03-16T08:40:12;99877.13;;;6.20;100.00
5966;BME280;3009;43.224;27.976;2023-03-16T08:42:42;99880.09;;;6.18;100.00
5966;BME280;3009;43.224;27.976;2023-03-16T08:45:11;99874.75;;;6.18;100.00
5966;BME280;3009;43.224;27.976;2023-03-16T08:47:40;99873.47;;;6.16;100.00
5966;BME280;3009;43.224;27.976;2023-03-16T08:50:10;99876.56;;;6.23;100.00
5966;BME280;3009;43.224;27.976;2023-03-16T08:52:39;99877.72;;;6.17;100.00
5966;BME280;3009;43.224;27.976;2023-03-16T08:55:10;99907.91;;;6.26;100.00
5966;BME280;3009;43.224;27.976;2023-03-16T08:57:39;99888.03;;;6.24;100.00
5966;BME280;3009;43.224;27.976;2023-03-16T09:00:08;99885.13;;;6.20;100.00
5966;BME280;3009;43.224;27.976;2023-03-16T09:02:39;99891.75;;;6.23;100.00
5966;BME280;3009;43.224;27.976;2023-03-16T09:05:10;99892.19;;;6.30;100.00
5966;BME280;3009;43.224;27.976;2023-03-16T09:07:38;99888.94;;;6.33;100.00
5966;BME280;3009;43.224;27.976;2023-03-16T09:10:11;99902.25;;;6.33;100.00
5966;BME280;3009;43.224;27.976;2023-03-16T09:12:42;99895.19;;;6.23;100.00
5966;BME280;3009;43.224;27.976;2023-03-16T09:15:12;99913.78;;;6.28;100.00
5966;BME280;3009;43.224;27.976;2023-03-16T09:17:42;99904.91;;;6.33;100.00
5966;BME280;3009;43.224;27.976;2023-03-16T09:20:13;99913.47;;;6.30;100.00
5966;BME280;3009;43.224;27.976;2023-03-16T09:22:51;99907.72;;;6.23;100.00
5966;BME280;3009;43.224;27.976;2023-03-16T09:25:22;99907.88;;;6.31;100.00
5966;BME280;3009;43.224;27.976;2023-03-16T09:27:51;99912.31;;;6.36;100.00
5966;BME280;3009;43.224;27.976;2023-03-16T09:30:20;99913.88;;;6.37;100.00
5966;BME280;3009;43.224;27.976;2023-03-16T09:32:48;99925.34;;;6.37;100.00
5966;BME280;3009;43.224;27.976;2023-03-16T09:35:17;99926.44;;;6.50;100.00
5966;BME280;3009;43.224;27.976;2023-03-16T09:37:46;99922.81;;;6.46;100.00
5966;BME280;3009;43.224;27.976;2023-03-16T09:40:34;99936.34;;;6.31;100.00
5966;BME280;3009;43.224;27.976;2023-03-16T09:43:32;99942.22;;;6.47;100.00
5966;BME280;3009;43.224;27.976;2023-03-16T09:46:07;99926.69;;;6.35;100.00
5966;BME280;3009;43.224;27.976;2023-03-16T09:48:38;99941.19;;;6.29;100.00
5966;BME280;3009;43.224;27.976;2023-03-16T09:51:14;99954.50;;;6.29;100.00
5966;BME280;3009;43.224;27.976;2023-03-16T09:53:46;99943.75;;;6.34;100.00
5966;BME280;3009;43.224;27.976;2023-03-16T09:56:21;99956.84;;;6.30;100.00
5966;BME280;3009;43.224;27.976;2023-03-16T09:58:55;99953.41;;;6.30;100.00
5966;BME280;3009;43.224;27.976;2023-03-16T10:01:33;99954.88;;;6.22;100.00
5966;BME280;3009;43.224;27.976;2023-03-16T10:04:18;99953.72;;;6.28;100.00
5966;BME280;3009;43.224;27.976;2023-03-16T10:06:58;99957.28;;;6.37;100.00
5966;BME280;3009;43.224;27.976;2023-03-16T10:09:32;99959.22;;;6.32;100.00
5966;BME280;3009;43.224;27.976;2023-03-16T10:12:06;99962.38;;;6.34;100.00
5966;BME280;3009;43.224;27.976;2023-03-16T10:14:40;99960.31;;;6.31;100.00
5966;BME280;3009;43.224;27.976;2023-03-16T10:17:15;99964.31;;;6.47;100.00
5966;BME280;3009;43.224;27.976;2023-03-16T10:19:48;99962.66;;;6.51;100.00
5966;BME280;3009;43.224;27.976;2023-03-16T10:22:20;99965.72;;;6.45;100.00
5966;BME280;3009;43.224;27.976;2023-03-16T10:25:00;99961.59;;;6.52;100.00
5966;BME280;3009;43.224;27.976;2023-03-16T10:27:33;99972.94;;;6.58;100.00
5966;BME280;3009;43.224;27.976;2023-03-16T10:30:06;99967.41;;;6.54;100.00
5966;BME280;3009;43.224;27.976;2023-03-16T10:32:35;99965.41;;;6.46;100.00
5966;BME280;3009;43.224;27.976;2023-03-16T10:35:13;99953.03;;;6.55;100.00
5966;BME280;3009;43.224;27.976;2023-03-16T10:37:46;99957.19;;;6.43;100.00
5966;BME280;3009;43.224;27.976;2023-03-16T10:40:16;99968.41;;;6.59;100.00
5966;BME280;3009;43.224;27.976;2023-03-16T10:42:47;99961.31;;;6.54;100.00
5966;BME280;3009;43.224;27.976;2023-03-16T10:45:22;99966.66;;;6.68;100.00
5966;BME280;3009;43.224;27.976;2023-03-16T10:48:03;99961.06;;;6.69;100.00
5966;BME280;3009;43.224;27.976;2023-03-16T10:50:32;99956.59;;;6.65;100.00
5966;BME280;3009;43.224;27.976;2023-03-16T10:53:01;99948.72;;;6.73;100.00
5966;BME280;3009;43.224;27.976;2023-03-16T10:55:39;99945.25;;;6.73;100.00
5966;BME280;3009;43.224;27.976;2023-03-16T10:58:22;99952.47;;;6.72;100.00
5966;BME280;3009;43.224;27.976;2023-03-16T11:00:55;99950.69;;;6.68;100.00
5966;BME280;3009;43.224;27.976;2023-03-16T11:03:25;99953.94;;;6.65;100.00
5966;BME280;3009;43.224;27.976;2023-03-16T11:05:59;99950.06;;;6.57;100.00
5966;BME280;3009;43.224;27.976;2023-03-16T11:08:31;99945.94;;;6.65;100.00
5966;BME280;3009;43.224;27.976;2023-03-16T11:11:07;99955.44;;;6.71;100.00
5966;BME280;3009;43.224;27.976;2023-03-16T11:13:44;99943.63;;;6.58;100.00
5966;BME280;3009;43.224;27.976;2023-03-16T11:16:22;99942.47;;;6.64;100.00
5966;BME280;3009;43.224;27.976;2023-03-16T11:18:54;99939.44;;;6.71;100.00
5966;BME280;3009;43.224;27.976;2023-03-16T11:21:35;99946.84;;;6.74;100.00
5966;BME280;3009;43.224;27.976;2023-03-16T11:24:13;99935.91;;;6.76;100.00
5966;BME280;3009;43.224;27.976;2023-03-16T11:26:44;99943.50;;;6.82;100.00
5966;BME280;3009;43.224;27.976;2023-03-16T11:29:20;99946.16;;;6.82;100.00
5966;BME280;3009;43.224;27.976;2023-03-16T11:31:53;99941.06;;;6.86;100.00
5966;BME280;3009;43.224;27.976;2023-03-16T11:34:26;99955.38;;;6.57;100.00
5966;BME280;3009;43.224;27.976;2023-03-16T11:37:02;99949.84;;;6.53;100.00
5966;BME280;3009;43.224;27.976;2023-03-16T11:39:37;99951.34;;;6.60;100.00
5966;BME280;3009;43.224;27.976;2023-03-16T11:42:18;99958.88;;;6.71;100.00
5966;BME280;3009;43.224;27.976;2023-03-16T11:44:54;99958.81;;;6.77;100.00
5966;BME280;3009;43.224;27.976;2023-03-16T11:47:44;99957.81;;;6.86;100.00
5966;BME280;3009;43.224;27.976;2023-03-16T11:50:24;99954.88;;;6.88;100.00
5966;BME280;3009;43.224;27.976;2023-03-16T11:53:01;99967.09;;;6.75;100.00
5966;BME280;3009;43.224;27.976;2023-03-16T11:55:38;99959.91;;;6.56;100.00
5966;BME280;3009;43.224;27.976;2023-03-16T11:58:31;99966.66;;;6.68;100.00
5966;BME280;3009;43.224;27.976;2023-03-16T12:01:07;99970.84;;;6.74;100.00
5966;BME280;3009;43.224;27.976;2023-03-16T12:03:49;99979.91;;;6.73;100.00
5966;BME280;3009;43.224;27.976;2023-03-16T12:06:43;99981.44;;;6.60;100.00
5966;BME280;3009;43.224;27.976;2023-03-16T12:12:31;99986.91;;;6.69;100.00
5966;BME280;3009;43.224;27.976;2023-03-16T12:15:11;99999.13;;;6.70;100.00
5966;BME280;3009;43.224;27.976;2023-03-16T12:17:45;99988.72;;;6.54;100.00
5966;BME280;3009;43.224;27.976;2023-03-16T12:20:19;99997.72;;;6.59;100.00
5966;BME280;3009;43.224;27.976;2023-03-16T12:22:52;100010.16;;;6.63;100.00
5966;BME280;3009;43.224;27.976;2023-03-16T12:25:26;99995.34;;;6.57;100.00
5966;BME280;3009;43.224;27.976;2023-03-16T12:27:59;100012.69;;;6.54;100.00
5966;BME280;3009;43.224;27.976;2023-03-16T12:30:36;100007.50;;;6.44;100.00
5966;BME280;3009;43.224;27.976;2023-03-16T12:33:17;100015.16;;;6.51;100.00
5966;BME280;3009;43.224;27.976;2023-03-16T12:35:55;100007.44;;;6.49;100.00
5966;BME280;3009;43.224;27.976;2023-03-16T12:38:39;100008.53;;;6.48;100.00
5966;BME280;3009;43.224;27.976;2023-03-16T12:41:22;100006.88;;;6.52;100.00
5966;BME280;3009;43.224;27.976;2023-03-16T12:44:05;100005.94;;;6.43;100.00
5966;BME280;3009;43.224;27.976;2023-03-16T12:46:43;100011.69;;;6.31;100.00
5966;BME280;3009;43.224;27.976;2023-03-16T12:49:15;100020.81;;;6.44;100.00
5966;BME280;3009;43.224;27.976;2023-03-16T12:51:45;100018.69;;;6.46;100.00
5966;BME280;3009;43.224;27.976;2023-03-16T12:54:19;100008.03;;;6.46;100.00
5966;BME280;3009;43.224;27.976;2023-03-16T12:56:48;100018.59;;;6.51;100.00
5966;BME280;3009;43.224;27.976;2023-03-16T12:59:21;100024.16;;;6.36;100.00
5966;BME280;3009;43.224;27.976;2023-03-16T13:01:52;100034.28;;;6.34;100.00
5966;BME280;3009;43.224;27.976;2023-03-16T13:04:30;100030.41;;;6.26;100.00
5966;BME280;3009;43.224;27.976;2023-03-16T13:07:01;100029.91;;;6.24;100.00
5966;BME280;3009;43.224;27.976;2023-03-16T13:09:34;100035.84;;;6.16;100.00
5966;BME280;3009;43.224;27.976;2023-03-16T13:12:03;100032.97;;;6.12;100.00
5966;BME280;3009;43.224;27.976;2023-03-16T13:14:36;100039.75;;;6.24;100.00
5966;BME280;3009;43.224;27.976;2023-03-16T13:17:26;100046.50;;;6.16;100.00
5966;BME280;3009;43.224;27.976;2023-03-16T13:20:06;100041.84;;;6.27;100.00
5966;BME280;3009;43.224;27.976;2023-03-16T13:23:17;100048.25;;;6.26;100.00
5966;BME280;3009;43.224;27.976;2023-03-16T13:26:00;100044.94;;;6.34;100.00
5966;BME280;3009;43.224;27.976;2023-03-16T13:28:31;100049.19;;;6.35;100.00
5966;BME280;3009;43.224;27.976;2023-03-16T13:31:01;100058.31;;;6.29;100.00
5966;BME280;3009;43.224;27.976;2023-03-16T13:33:32;100057.03;;;6.26;100.00
5966;BME280;3009;43.224;27.976;2023-03-16T13:36:04;100054.06;;;6.28;100.00
5966;BME280;3009;43.224;27.976;2023-03-16T13:38:33;100061.78;;;6.29;100.00